Long Island City, NY (11106)

8:40 PM EDT on July 30, 2016 (GMT -0400)
APRSWXNET | | Change Station

Elev 41 ft 40.78 °N, 73.92 °W | Updated 34 minutes ago

Light Rain
Light Rain Mist
76 °F
Feels Like 76 °F
N
0
Wind Variable Wind from SE
Gusts 0.0 mph

Today
High -- | Low -- °F
--% Chance of Precip.
Yesterday
High -- | Low -- °F
Precip. -- in
Pressure 30.07 in
Visibility 4.0 miles
Clouds Few 1500 ft
Mostly Cloudy 2900 ft
Overcast 3700 ft
Heat Index 76 °F
Dew Point 73 °F
Humidity 91%
Rainfall in
Snow Depth Not available.
5:50 AM 8:12 PM
Waning Crescent, 10% visible
SPECI KNYC 310017Z AUTO 00000KT 4SM -RA BR FEW015 BKN029 OVC037 23/22 A3007 RMK AO2 RAB11 P0000 T02330222 $
Pressure 30.07 in
Visibility 4.0 miles
Clouds Few 1500 ft
Mostly Cloudy 2900 ft
Overcast 3700 ft
Heat Index 76 °F
Dew Point 73 °F
Humidity 91%
Rainfall in
Snow Depth Not available.
5:50 AM 8:12 PM
Waning Crescent, 10% visible
SPECI KNYC 310017Z AUTO 00000KT 4SM -RA BR FEW015 BKN029 OVC037 23/22 A3007 RMK AO2 RAB11 P0000 T02330222 $

10-Day Weather Forecast

Almanac

Astronomy

Jul. 30, 2016 Rise Set
Actual Time
Civil Twilight
Nautical Twilight
Astronomical Twilight
Moon
Length of Visible Light
Length of Day
Tomorrow will be .
, % of the Moon is Illuminated

Today's Extremes

State Highs State Lows

Community

WunderPhotos

Upload Photos

1,928,682 photos uploaded!

WunderBlog® & News

Nearby

Air Quality

  Air Quality AQ Index Pollutant
Not available.

Snow Depth

Station Depth Elevation

Earthquake Activity

City Distance Mag. Time & Date
Minimum magnitude displayed is 2.5.

Coastal Water Temperatures

Place Temperature

Stations

Nearby Weather Stations

Station Location Temp. Windchill Dew Point Humidity Wind Precip. Elev Updated Type
                   

Watches & Warnings

There are currently no watches in effect.